sensor_id;sensor_type;location;lat;lon;timestamp;temperature;humidity
6518;DHT22;3292;48.944;9.240;2023-07-24T00:01:52;17.60;99.90
6518;DHT22;3292;48.944;9.240;2023-07-24T00:04:21;17.70;99.90
6518;DHT22;3292;48.944;9.240;2023-07-24T00:06:47;17.70;99.90
6518;DHT22;3292;48.944;9.240;2023-07-24T00:09:14;17.70;99.90
6518;DHT22;3292;48.944;9.240;2023-07-24T00:11:41;17.80;99.90
6518;DHT22;3292;48.944;9.240;2023-07-24T00:14:08;17.80;99.90
6518;DHT22;3292;48.944;9.240;2023-07-24T00:16:35;17.60;99.90
6518;DHT22;3292;48.944;9.240;2023-07-24T00:19:02;17.60;99.90
6518;DHT22;3292;48.944;9.240;2023-07-24T00:21:30;17.50;99.90
6518;DHT22;3292;48.944;9.240;2023-07-24T00:23:57;17.40;99.90
6518;DHT22;3292;48.944;9.240;2023-07-24T00:26:24;17.30;99.90
6518;DHT22;3292;48.944;9.240;2023-07-24T00:28:51;17.30;99.90
6518;DHT22;3292;48.944;9.240;2023-07-24T00:31:18;17.40;99.90
6518;DHT22;3292;48.944;9.240;2023-07-24T00:33:45;17.40;99.90
6518;DHT22;3292;48.944;9.240;2023-07-24T00:36:11;17.30;99.90
6518;DHT22;3292;48.944;9.240;2023-07-24T00:38:40;17.30;99.90
6518;DHT22;3292;48.944;9.240;2023-07-24T00:41:06;17.30;99.90
6518;DHT22;3292;48.944;9.240;2023-07-24T00:43:33;17.10;99.90
6518;DHT22;3292;48.944;9.240;2023-07-24T00:46:00;17.10;99.90
6518;DHT22;3292;48.944;9.240;2023-07-24T00:48:27;17.10;99.90
6518;DHT22;3292;48.944;9.240;2023-07-24T00:50:56;17.10;99.90
6518;DHT22;3292;48.944;9.240;2023-07-24T00:53:23;17.10;99.90
6518;DHT22;3292;48.944;9.240;2023-07-24T00:55:51;17.00;99.90
6518;DHT22;3292;48.944;9.240;2023-07-24T00:58:19;17.00;99.90
6518;DHT22;3292;48.944;9.240;2023-07-24T01:00:46;16.90;99.90
6518;DHT22;3292;48.944;9.240;2023-07-24T01:03:13;16.80;99.90
6518;DHT22;3292;48.944;9.240;2023-07-24T01:05:40;17.00;99.90
6518;DHT22;3292;48.944;9.240;2023-07-24T01:08:07;17.00;99.90
6518;DHT22;3292;48.944;9.240;2023-07-24T01:10:34;16.90;99.90
6518;DHT22;3292;48.944;9.240;2023-07-24T01:13:07;16.90;99.90
6518;DHT22;3292;48.944;9.240;2023-07-24T01:15:38;16.90;99.90
6518;DHT22;3292;48.944;9.240;2023-07-24T01:18:09;16.80;99.90
6518;DHT22;3292;48.944;9.240;2023-07-24T01:20:40;16.90;99.90
6518;DHT22;3292;48.944;9.240;2023-07-24T01:23:22;16.80;99.90
6518;DHT22;3292;48.944;9.240;2023-07-24T01:25:58;16.70;99.90
6518;DHT22;3292;48.944;9.240;2023-07-24T01:28:25;16.80;99.90
6518;DHT22;3292;48.944;9.240;2023-07-24T01:30:52;16.80;99.90
6518;DHT22;3292;48.944;9.240;2023-07-24T01:33:19;16.80;99.90
6518;DHT22;3292;48.944;9.240;2023-07-24T01:35:49;16.70;99.90
6518;DHT22;3292;48.944;9.240;2023-07-24T01:38:17;16.70;99.90
6518;DHT22;3292;48.944;9.240;2023-07-24T01:40:45;16.60;99.90
6518;DHT22;3292;48.944;9.240;2023-07-24T01:43:14;16.50;99.90
6518;DHT22;3292;48.944;9.240;2023-07-24T01:45:40;16.40;99.90
6518;DHT22;3292;48.944;9.240;2023-07-24T01:48:07;16.40;99.90
6518;DHT22;3292;48.944;9.240;2023-07-24T01:50:34;16.40;99.90
6518;DHT22;3292;48.944;9.240;2023-07-24T01:53:01;16.40;99.90
6518;DHT22;3292;48.944;9.240;2023-07-24T01:55:28;16.40;99.90
6518;DHT22;3292;48.944;9.240;2023-07-24T01:57:54;16.30;99.90
6518;DHT22;3292;48.944;9.240;2023-07-24T02:00:23;16.30;99.90
6518;DHT22;3292;48.944;9.240;2023-07-24T02:02:50;16.30;99.90
6518;DHT22;3292;48.944;9.240;2023-07-24T02:05:16;16.30;99.90
6518;DHT22;3292;48.944;9.240;2023-07-24T02:07:43;16.30;99.90
6518;DHT22;3292;48.944;9.240;2023-07-24T02:10:10;16.30;99.90
6518;DHT22;3292;48.944;9.240;2023-07-24T02:12:37;16.30;99.90
6518;DHT22;3292;48.944;9.240;2023-07-24T02:15:04;16.30;99.90
6518;DHT22;3292;48.944;9.240;2023-07-24T02:17:32;16.30;99.90
6518;DHT22;3292;48.944;9.240;2023-07-24T02:19:59;16.20;99.90
6518;DHT22;3292;48.944;9.240;2023-07-24T02:22:26;16.20;99.90
6518;DHT22;3292;48.944;9.240;2023-07-24T02:24:53;16.20;99.90
6518;DHT22;3292;48.944;9.240;2023-07-24T02:27:27;16.20;99.90
6518;DHT22;3292;48.944;9.240;2023-07-24T02:29:54;16.20;99.90
6518;DHT22;3292;48.944;9.240;2023-07-24T02:32:21;16.20;99.90
6518;DHT22;3292;48.944;9.240;2023-07-24T02:34:50;16.30;99.90
6518;DHT22;3292;48.944;9.240;2023-07-24T02:37:17;16.30;99.90
6518;DHT22;3292;48.944;9.240;2023-07-24T02:39:43;16.30;99.90
6518;DHT22;3292;48.944;9.240;2023-07-24T02:42:10;16.30;99.90
6518;DHT22;3292;48.944;9.240;2023-07-24T02:44:37;16.30;99.90
6518;DHT22;3292;48.944;9.240;2023-07-24T02:47:04;16.40;99.90
6518;DHT22;3292;48.944;9.240;2023-07-24T02:49:32;16.50;99.90
6518;DHT22;3292;48.944;9.240;2023-07-24T02:52:00;16.50;99.90
6518;DHT22;3292;48.944;9.240;2023-07-24T02:54:27;16.50;99.90
6518;DHT22;3292;48.944;9.240;2023-07-24T02:56:54;16.50;99.90
6518;DHT22;3292;48.944;9.240;2023-07-24T02:59:20;16.40;99.90
6518;DHT22;3292;48.944;9.240;2023-07-24T03:01:47;16.40;99.90
6518;DHT22;3292;48.944;9.240;2023-07-24T03:04:14;16.40;99.90
6518;DHT22;3292;48.944;9.240;2023-07-24T03:06:41;16.40;99.90
6518;DHT22;3292;48.944;9.240;2023-07-24T03:09:09;16.40;99.90
6518;DHT22;3292;48.944;9.240;2023-07-24T03:11:36;16.50;99.90
6518;DHT22;3292;48.944;9.240;2023-07-24T03:14:03;16.40;99.90
6518;DHT22;3292;48.944;9.240;2023-07-24T03:16:30;16.40;99.90
6518;DHT22;3292;48.944;9.240;2023-07-24T03:18:56;16.40;99.90
6518;DHT22;3292;48.944;9.240;2023-07-24T03:21:23;16.40;99.90
6518;DHT22;3292;48.944;9.240;2023-07-24T03:23:50;16.40;99.90
6518;DHT22;3292;48.944;9.240;2023-07-24T03:26:19;16.40;99.90
6518;DHT22;3292;48.944;9.240;2023-07-24T03:28:45;16.40;99.90
6518;DHT22;3292;48.944;9.240;2023-07-24T03:31:12;16.30;99.90
6518;DHT22;3292;48.944;9.240;2023-07-24T03:33:39;16.30;99.90
6518;DHT22;3292;48.944;9.240;2023-07-24T03:36:06;16.30;99.90
6518;DHT22;3292;48.944;9.240;2023-07-24T03:38:33;16.30;99.90
6518;DHT22;3292;48.944;9.240;2023-07-24T03:41:00;16.30;99.90
6518;DHT22;3292;48.944;9.240;2023-07-24T03:43:29;16.30;99.90
6518;DHT22;3292;48.944;9.240;2023-07-24T03:45:55;16.20;99.90
6518;DHT22;3292;48.944;9.240;2023-07-24T03:48:22;16.30;99.90
6518;DHT22;3292;48.944;9.240;2023-07-24T03:50:49;16.30;99.90
6518;DHT22;3292;48.944;9.240;2023-07-24T03:53:17;16.30;99.90
6518;DHT22;3292;48.944;9.240;2023-07-24T03:55:44;16.30;99.90
6518;DHT22;3292;48.944;9.240;2023-07-24T03:58:11;16.30;99.90
6518;DHT22;3292;48.944;9.240;2023-07-24T04:00:40;16.20;99.90
6518;DHT22;3292;48.944;9.240;2023-07-24T04:03:07;16.20;99.90
6518;DHT22;3292;48.944;9.240;2023-07-24T04:05:35;16.20;99.90
6518;DHT22;3292;48.944;9.240;2023-07-24T04:08:02;16.20;99.90
6518;DHT22;3292;48.944;9.240;2023-07-24T04:10:29;16.20;99.90
6518;DHT22;3292;48.944;9.240;2023-07-24T04:12:56;16.10;99.90
6518;DHT22;3292;48.944;9.240;2023-07-24T04:15:23;16.20;99.90
6518;DHT22;3292;48.944;9.240;2023-07-24T04:17:51;16.20;99.90
6518;DHT22;3292;48.944;9.240;2023-07-24T04:20:19;16.30;99.90
6518;DHT22;3292;48.944;9.240;2023-07-24T04:22:46;16.30;99.90
6518;DHT22;3292;48.944;9.240;2023-07-24T04:25:13;16.40;99.90
6518;DHT22;3292;48.944;9.240;2023-07-24T04:27:42;16.40;99.90
6518;DHT22;3292;48.944;9.240;2023-07-24T04:30:10;16.40;99.90
6518;DHT22;3292;48.944;9.240;2023-07-24T04:32:37;16.50;99.90
6518;DHT22;3292;48.944;9.240;2023-07-24T04:35:06;16.50;99.90
6518;DHT22;3292;48.944;9.240;2023-07-24T04:37:34;16.60;99.90
6518;DHT22;3292;48.944;9.240;2023-07-24T04:40:02;16.50;99.90
6518;DHT22;3292;48.944;9.240;2023-07-24T04:42:29;16.60;99.90
6518;DHT22;3292;48.944;9.240;2023-07-24T04:44:58;16.60;99.90
6518;DHT22;3292;48.944;9.240;2023-07-24T04:47:27;16.60;99.90
6518;DHT22;3292;48.944;9.240;2023-07-24T04:49:56;16.60;99.90
6518;DHT22;3292;48.944;9.240;2023-07-24T04:52:27;16.70;99.90
6518;DHT22;3292;48.944;9.240;2023-07-24T04:54:55;16.80;99.90
6518;DHT22;3292;48.944;9.240;2023-07-24T04:57:24;16.90;99.90
6518;DHT22;3292;48.944;9.240;2023-07-24T04:59:53;17.10;99.90
6518;DHT22;3292;48.944;9.240;2023-07-24T05:02:23;17.20;99.90
6518;DHT22;3292;48.944;9.240;2023-07-24T05:04:53;17.20;99.90
6518;DHT22;3292;48.944;9.240;2023-07-24T05:07:22;17.20;99.90
6518;DHT22;3292;48.944;9.240;2023-07-24T05:09:56;17.20;99.90
6518;DHT22;3292;48.944;9.240;2023-07-24T05:12:24;17.20;99.90
6518;DHT22;3292;48.944;9.240;2023-07-24T05:14:52;17.20;99.90
6518;DHT22;3292;48.944;9.240;2023-07-24T05:17:20;17.10;99.90
6518;DHT22;3292;48.944;9.240;2023-07-24T05:19:48;17.10;99.90
6518;DHT22;3292;48.944;9.240;2023-07-24T05:22:16;17.20;99.90
6518;DHT22;3292;48.944;9.240;2023-07-24T05:24:44;17.20;99.90
6518;DHT22;3292;48.944;9.240;2023-07-24T05:27:14;17.30;99.90
6518;DHT22;3292;48.944;9.240;2023-07-24T05:29:42;17.20;99.90
6518;DHT22;3292;48.944;9.240;2023-07-24T05:32:10;17.30;99.90
6518;DHT22;3292;48.944;9.240;2023-07-24T05:34:38;17.30;99.90
6518;DHT22;3292;48.944;9.240;2023-07-24T05:37:06;17.30;99.90
6518;DHT22;3292;48.944;9.240;2023-07-24T05:39:34;17.30;99.90
6518;DHT22;3292;48.944;9.240;2023-07-24T05:42:02;17.40;99.90
6518;DHT22;3292;48.944;9.240;2023-07-24T05:44:32;17.40;99.90
6518;DHT22;3292;48.944;9.240;2023-07-24T05:47:01;17.50;99.90
6518;DHT22;3292;48.944;9.240;2023-07-24T05:49:29;17.40;99.90
6518;DHT22;3292;48.944;9.240;2023-07-24T05:51:56;17.50;99.90
6518;DHT22;3292;48.944;9.240;2023-07-24T05:54:24;17.50;99.90
6518;DHT22;3292;48.944;9.240;2023-07-24T05:56:52;17.60;99.90
6518;DHT22;3292;48.944;9.240;2023-07-24T05:59:20;17.60;99.90
6518;DHT22;3292;48.944;9.240;2023-07-24T06:01:49;17.60;99.90
6518;DHT22;3292;48.944;9.240;2023-07-24T06:04:17;17.60;99.90
6518;DHT22;3292;48.944;9.240;2023-07-24T06:06:45;17.50;99.90
6518;DHT22;3292;48.944;9.240;2023-07-24T06:09:13;17.60;99.90
6518;DHT22;3292;48.944;9.240;2023-07-24T06:11:41;17.70;99.90
6518;DHT22;3292;48.944;9.240;2023-07-24T06:14:08;17.60;99.90
6518;DHT22;3292;48.944;9.240;2023-07-24T06:16:36;17.70;99.90
6518;DHT22;3292;48.944;9.240;2023-07-24T06:19:06;17.70;99.90
6518;DHT22;3292;48.944;9.240;2023-07-24T06:21:33;17.60;99.90
6518;DHT22;3292;48.944;9.240;2023-07-24T06:24:03;17.70;99.90
6518;DHT22;3292;48.944;9.240;2023-07-24T06:26:31;17.70;99.90
6518;DHT22;3292;48.944;9.240;2023-07-24T06:28:59;17.70;99.90
6518;DHT22;3292;48.944;9.240;2023-07-24T06:31:27;17.80;99.90
6518;DHT22;3292;48.944;9.240;2023-07-24T06:33:54;17.80;99.90
6518;DHT22;3292;48.944;9.240;2023-07-24T06:36:23;17.70;99.90
6518;DHT22;3292;48.944;9.240;2023-07-24T06:38:52;17.80;99.90
6518;DHT22;3292;48.944;9.240;2023-07-24T06:41:19;17.80;99.90
6518;DHT22;3292;48.944;9.240;2023-07-24T06:43:48;17.80;99.90
6518;DHT22;3292;48.944;9.240;2023-07-24T06:46:15;17.90;99.90
6518;DHT22;3292;48.944;9.240;2023-07-24T06:48:42;17.90;99.90
6518;DHT22;3292;48.944;9.240;2023-07-24T06:51:10;17.90;99.90
6518;DHT22;3292;48.944;9.240;2023-07-24T06:53:39;17.90;99.90
6518;DHT22;3292;48.944;9.240;2023-07-24T06:56:07;18.00;99.90
6518;DHT22;3292;48.944;9.240;2023-07-24T06:58:33;18.10;99.90
6518;DHT22;3292;48.944;9.240;2023-07-24T07:01:04;18.10;99.90
6518;DHT22;3292;48.944;9.240;2023-07-24T07:03:31;18.20;99.90
6518;DHT22;3292;48.944;9.240;2023-07-24T07:06:00;18.30;99.90
6518;DHT22;3292;48.944;9.240;2023-07-24T07:08:29;18.40;99.90
6518;DHT22;3292;48.944;9.240;2023-07-24T07:11:00;18.50;99.90
6518;DHT22;3292;48.944;9.240;2023-07-24T07:13:28;18.60;99.90
6518;DHT22;3292;48.944;9.240;2023-07-24T07:15:55;18.60;99.90
6518;DHT22;3292;48.944;9.240;2023-07-24T07:18:23;18.70;99.90
6518;DHT22;3292;48.944;9.240;2023-07-24T07:20:53;18.80;99.90
6518;DHT22;3292;48.944;9.240;2023-07-24T07:23:21;18.80;99.90
6518;DHT22;3292;48.944;9.240;2023-07-24T07:25:50;18.80;99.90
6518;DHT22;3292;48.944;9.240;2023-07-24T07:28:19;18.80;99.90
6518;DHT22;3292;48.944;9.240;2023-07-24T07:30:47;18.90;99.90
6518;DHT22;3292;48.944;9.240;2023-07-24T07:33:15;18.90;99.90
6518;DHT22;3292;48.944;9.240;2023-07-24T07:35:43;19.00;99.90
6518;DHT22;3292;48.944;9.240;2023-07-24T07:38:10;19.00;99.90
6518;DHT22;3292;48.944;9.240;2023-07-24T07:40:37;19.00;99.90
6518;DHT22;3292;48.944;9.240;2023-07-24T07:43:05;19.10;99.90
6518;DHT22;3292;48.944;9.240;2023-07-24T07:45:34;19.10;99.90
6518;DHT22;3292;48.944;9.240;2023-07-24T07:48:02;19.20;99.90
6518;DHT22;3292;48.944;9.240;2023-07-24T07:50:29;19.20;99.90
6518;DHT22;3292;48.944;9.240;2023-07-24T07:52:56;19.20;99.90
6518;DHT22;3292;48.944;9.240;2023-07-24T07:55:24;19.30;99.90
6518;DHT22;3292;48.944;9.240;2023-07-24T07:57:51;19.30;99.90
6518;DHT22;3292;48.944;9.240;2023-07-24T08:00:18;19.30;99.90
6518;DHT22;3292;48.944;9.240;2023-07-24T08:02:46;19.30;99.90
6518;DHT22;3292;48.944;9.240;2023-07-24T08:05:13;19.30;99.90
6518;DHT22;3292;48.944;9.240;2023-07-24T08:07:41;19.30;99.90
6518;DHT22;3292;48.944;9.240;2023-07-24T08:10:08;19.30;99.90
6518;DHT22;3292;48.944;9.240;2023-07-24T08:12:35;19.30;99.90
6518;DHT22;3292;48.944;9.240;2023-07-24T08:15:02;19.40;99.90
6518;DHT22;3292;48.944;9.240;2023-07-24T08:17:30;19.40;99.90
6518;DHT22;3292;48.944;9.240;2023-07-24T08:19:58;19.40;99.90
6518;DHT22;3292;48.944;9.240;2023-07-24T08:22:25;19.40;99.90
6518;DHT22;3292;48.944;9.240;2023-07-24T08:24:52;19.40;99.90
6518;DHT22;3292;48.944;9.240;2023-07-24T08:27:19;19.40;99.90
6518;DHT22;3292;48.944;9.240;2023-07-24T08:29:46;19.40;99.90
6518;DHT22;3292;48.944;9.240;2023-07-24T08:32:13;19.40;99.90
6518;DHT22;3292;48.944;9.240;2023-07-24T08:34:42;19.40;99.90
6518;DHT22;3292;48.944;9.240;2023-07-24T08:37:11;19.40;99.90
6518;DHT22;3292;48.944;9.240;2023-07-24T08:39:38;19.40;99.90
6518;DHT22;3292;48.944;9.240;2023-07-24T08:42:09;19.40;99.90
6518;DHT22;3292;48.944;9.240;2023-07-24T08:44:37;19.30;99.90
6518;DHT22;3292;48.944;9.240;2023-07-24T08:47:10;19.30;99.90
6518;DHT22;3292;48.944;9.240;2023-07-24T08:49:39;19.30;99.90
6518;DHT22;3292;48.944;9.240;2023-07-24T08:52:07;19.30;99.90
6518;DHT22;3292;48.944;9.240;2023-07-24T08:54:37;19.30;99.90
6518;DHT22;3292;48.944;9.240;2023-07-24T08:57:06;19.30;99.90
6518;DHT22;3292;48.944;9.240;2023-07-24T08:59:34;19.40;99.90
6518;DHT22;3292;48.944;9.240;2023-07-24T09:02:01;19.50;99.90
6518;DHT22;3292;48.944;9.240;2023-07-24T09:04:28;19.60;99.90
6518;DHT22;3292;48.944;9.240;2023-07-24T09:06:57;19.60;99.90
6518;DHT22;3292;48.944;9.240;2023-07-24T09:09:29;19.60;99.90
6518;DHT22;3292;48.944;9.240;2023-07-24T09:11:57;19.60;99.90
6518;DHT22;3292;48.944;9.240;2023-07-24T09:14:26;19.70;99.90
6518;DHT22;3292;48.944;9.240;2023-07-24T09:17:07;19.90;99.90
6518;DHT22;3292;48.944;9.240;2023-07-24T09:19:34;20.10;99.90
6518;DHT22;3292;48.944;9.240;2023-07-24T09:22:08;20.30;99.90
6518;DHT22;3292;48.944;9.240;2023-07-24T09:24:36;20.50;99.90
6518;DHT22;3292;48.944;9.240;2023-07-24T09:27:06;20.70;99.90
6518;DHT22;3292;48.944;9.240;2023-07-24T09:29:35;20.90;99.90
6518;DHT22;3292;48.944;9.240;2023-07-24T09:32:02;21.20;99.90
6518;DHT22;3292;48.944;9.240;2023-07-24T09:34:31;21.50;99.90
6518;DHT22;3292;48.944;9.240;2023-07-24T09:36:58;21.60;99.90
6518;DHT22;3292;48.944;9.240;2023-07-24T09:39:25;21.70;99.90
6518;DHT22;3292;48.944;9.240;2023-07-24T09:41:52;21.70;99.90
6518;DHT22;3292;48.944;9.240;2023-07-24T09:44:25;21.80;99.90
6518;DHT22;3292;48.944;9.240;2023-07-24T09:46:53;21.80;99.90
6518;DHT22;3292;48.944;9.240;2023-07-24T09:49:21;21.90;99.90
6518;DHT22;3292;48.944;9.240;2023-07-24T09:51:50;22.00;99.90
6518;DHT22;3292;48.944;9.240;2023-07-24T09:54:23;21.90;99.90
6518;DHT22;3292;48.944;9.240;2023-07-24T09:56:53;21.90;99.90
6518;DHT22;3292;48.944;9.240;2023-07-24T09:59:23;21.80;99.90
6518;DHT22;3292;48.944;9.240;2023-07-24T10:01:54;21.80;99.90
6518;DHT22;3292;48.944;9.240;2023-07-24T10:04:22;21.70;99.90
6518;DHT22;3292;48.944;9.240;2023-07-24T10:06:51;21.70;99.90
6518;DHT22;3292;48.944;9.240;2023-07-24T10:09:19;21.60;99.90
6518;DHT22;3292;48.944;9.240;2023-07-24T10:11:48;21.50;99.90
6518;DHT22;3292;48.944;9.240;2023-07-24T10:14:16;21.40;99.90
6518;DHT22;3292;48.944;9.240;2023-07-24T10:16:46;21.40;99.90
6518;DHT22;3292;48.944;9.240;2023-07-24T10:19:15;21.20;99.90
6518;DHT22;3292;48.944;9.240;2023-07-24T10:21:47;21.30;99.90
6518;DHT22;3292;48.944;9.240;2023-07-24T10:24:15;21.20;99.90
6518;DHT22;3292;48.944;9.240;2023-07-24T10:26:42;21.10;99.90
6518;DHT22;3292;48.944;9.240;2023-07-24T10:29:10;21.10;99.90
6518;DHT22;3292;48.944;9.240;2023-07-24T10:31:39;21.00;99.90
6518;DHT22;3292;48.944;9.240;2023-07-24T10:34:09;21.00;99.90
6518;DHT22;3292;48.944;9.240;2023-07-24T10:36:37;20.90;99.90
6518;DHT22;3292;48.944;9.240;2023-07-24T10:39:14;20.90;99.90
6518;DHT22;3292;48.944;9.240;2023-07-24T10:41:42;20.70;99.90
6518;DHT22;3292;48.944;9.240;2023-07-24T10:44:12;20.70;99.90
6518;DHT22;3292;48.944;9.240;2023-07-24T10:46:40;20.60;99.90
6518;DHT22;3292;48.944;9.240;2023-07-24T10:49:11;20.70;99.90
6518;DHT22;3292;48.944;9.240;2023-07-24T10:51:38;20.60;99.90
6518;DHT22;3292;48.944;9.240;2023-07-24T10:54:06;20.60;99.90
6518;DHT22;3292;48.944;9.240;2023-07-24T10:56:33;20.50;99.90
6518;DHT22;3292;48.944;9.240;2023-07-24T10:59:03;20.40;99.90
6518;DHT22;3292;48.944;9.240;2023-07-24T11:01:32;20.30;99.90
6518;DHT22;3292;48.944;9.240;2023-07-24T11:04:00;20.20;99.90
6518;DHT22;3292;48.944;9.240;2023-07-24T11:06:28;20.10;99.90
6518;DHT22;3292;48.944;9.240;2023-07-24T11:08:58;20.10;99.90
6518;DHT22;3292;48.944;9.240;2023-07-24T11:11:30;20.00;99.90
6518;DHT22;3292;48.944;9.240;2023-07-24T11:13:57;19.90;99.90
6518;DHT22;3292;48.944;9.240;2023-07-24T11:16:26;19.90;99.90
6518;DHT22;3292;48.944;9.240;2023-07-24T11:18:53;19.80;99.90
6518;DHT22;3292;48.944;9.240;2023-07-24T11:21:22;19.70;99.90
6518;DHT22;3292;48.944;9.240;2023-07-24T11:23:53;19.60;99.90
6518;DHT22;3292;48.944;9.240;2023-07-24T11:26:21;19.60;99.90
6518;DHT22;3292;48.944;9.240;2023-07-24T11:28:49;19.50;99.90
6518;DHT22;3292;48.944;9.240;2023-07-24T11:31:17;19.40;99.90
6518;DHT22;3292;48.944;9.240;2023-07-24T11:33:47;19.40;99.90
6518;DHT22;3292;48.944;9.240;2023-07-24T11:36:15;19.40;99.90
6518;DHT22;3292;48.944;9.240;2023-07-24T11:38:44;19.30;99.90
6518;DHT22;3292;48.944;9.240;2023-07-24T11:41:13;19.40;99.90
6518;DHT22;3292;48.944;9.240;2023-07-24T11:43:46;19.30;99.90
6518;DHT22;3292;48.944;9.240;2023-07-24T11:46:23;19.40;99.90
6518;DHT22;3292;48.944;9.240;2023-07-24T11:48:51;19.40;99.90
6518;DHT22;3292;48.944;9.240;2023-07-24T11:51:19;19.40;99.90
6518;DHT22;3292;48.944;9.240;2023-07-24T11:53:47;19.60;99.90
6518;DHT22;3292;48.944;9.240;2023-07-24T11:56:17;19.70;99.90
6518;DHT22;3292;48.944;9.240;2023-07-24T11:58:47;20.00;99.90
6518;DHT22;3292;48.944;9.240;2023-07-24T12:01:14;20.10;99.90
6518;DHT22;3292;48.944;9.240;2023-07-24T12:03:42;20.10;99.90
6518;DHT22;3292;48.944;9.240;2023-07-24T12:06:14;20.20;99.90
6518;DHT22;3292;48.944;9.240;2023-07-24T12:08:42;20.30;99.90
6518;DHT22;3292;48.944;9.240;2023-07-24T12:11:17;20.20;99.90
6518;DHT22;3292;48.944;9.240;2023-07-24T12:13:45;20.10;99.90
6518;DHT22;3292;48.944;9.240;2023-07-24T12:16:14;20.00;99.90
6518;DHT22;3292;48.944;9.240;2023-07-24T12:18:44;20.00;99.90
6518;DHT22;3292;48.944;9.240;2023-07-24T12:21:12;20.00;99.90
6518;DHT22;3292;48.944;9.240;2023-07-24T12:23:39;19.90;99.90
6518;DHT22;3292;48.944;9.240;2023-07-24T12:26:07;19.90;99.90
6518;DHT22;3292;48.944;9.240;2023-07-24T12:28:35;19.90;99.90
6518;DHT22;3292;48.944;9.240;2023-07-24T12:31:03;19.90;99.90
6518;DHT22;3292;48.944;9.240;2023-07-24T12:33:31;19.90;99.90
6518;DHT22;3292;48.944;9.240;2023-07-24T12:35:59;19.70;99.90
6518;DHT22;3292;48.944;9.240;2023-07-24T12:38:27;19.70;99.90
6518;DHT22;3292;48.944;9.240;2023-07-24T12:40:55;19.60;99.90
6518;DHT22;3292;48.944;9.240;2023-07-24T12:43:23;19.60;99.90
6518;DHT22;3292;48.944;9.240;2023-07-24T12:45:52;19.60;99.90
6518;DHT22;3292;48.944;9.240;2023-07-24T12:48:19;19.60;99.90
6518;DHT22;3292;48.944;9.240;2023-07-24T12:50:47;19.60;99.90
6518;DHT22;3292;48.944;9.240;2023-07-24T12:53:15;19.60;99.90
6518;DHT22;3292;48.944;9.240;2023-07-24T12:55:42;19.50;99.90
6518;DHT22;3292;48.944;9.240;2023-07-24T12:58:10;19.50;99.90
6518;DHT22;3292;48.944;9.240;2023-07-24T13:00:37;19.50;99.90
6518;DHT22;3292;48.944;9.240;2023-07-24T13:03:05;19.50;99.90
6518;DHT22;3292;48.944;9.240;2023-07-24T13:05:33;19.50;99.90
6518;DHT22;3292;48.944;9.240;2023-07-24T13:08:00;19.50;99.90
6518;DHT22;3292;48.944;9.240;2023-07-24T13:10:28;19.50;99.90
6518;DHT22;3292;48.944;9.240;2023-07-24T13:12:55;19.50;99.90
6518;DHT22;3292;48.944;9.240;2023-07-24T13:15:23;19.50;99.90
6518;DHT22;3292;48.944;9.240;2023-07-24T13:17:50;19.50;99.90
6518;DHT22;3292;48.944;9.240;2023-07-24T13:20:19;19.50;99.90
6518;DHT22;3292;48.944;9.240;2023-07-24T13:22:47;19.50;99.90
6518;DHT22;3292;48.944;9.240;2023-07-24T13:25:15;19.50;99.90
6518;DHT22;3292;48.944;9.240;2023-07-24T13:27:43;19.40;99.90
6518;DHT22;3292;48.944;9.240;2023-07-24T13:30:11;19.40;99.90
6518;DHT22;3292;48.944;9.240;2023-07-24T13:32:40;19.30;99.90
6518;DHT22;3292;48.944;9.240;2023-07-24T13:35:10;19.40;99.90
6518;DHT22;3292;48.944;9.240;2023-07-24T13:37:38;19.30;99.90
6518;DHT22;3292;48.944;9.240;2023-07-24T13:40:06;19.40;99.90
6518;DHT22;3292;48.944;9.240;2023-07-24T13:42:33;19.30;99.90
6518;DHT22;3292;48.944;9.240;2023-07-24T13:45:00;19.30;99.90
6518;DHT22;3292;48.944;9.240;2023-07-24T13:47:27;19.30;99.90
6518;DHT22;3292;48.944;9.240;2023-07-24T13:49:54;19.30;99.90
6518;DHT22;3292;48.944;9.240;2023-07-24T13:52:21;19.30;99.90
6518;DHT22;3292;48.944;9.240;2023-07-24T13:54:49;19.40;99.90
6518;DHT22;3292;48.944;9.240;2023-07-24T13:57:16;19.40;99.90
6518;DHT22;3292;48.944;9.240;2023-07-24T13:59:43;19.60;99.90
6518;DHT22;3292;48.944;9.240;2023-07-24T14:02:10;19.70;99.90
6518;DHT22;3292;48.944;9.240;2023-07-24T14:04:38;19.80;99.90
6518;DHT22;3292;48.944;9.240;2023-07-24T14:07:05;20.00;99.90
6518;DHT22;3292;48.944;9.240;2023-07-24T14:09:32;20.30;99.90
6518;DHT22;3292;48.944;9.240;2023-07-24T14:12:01;20.60;99.90
6518;DHT22;3292;48.944;9.240;2023-07-24T14:14:28;20.90;99.90
6518;DHT22;3292;48.944;9.240;2023-07-24T14:16:55;21.10;99.90
6518;DHT22;3292;48.944;9.240;2023-07-24T14:19:22;21.20;99.90
6518;DHT22;3292;48.944;9.240;2023-07-24T14:21:50;21.40;99.90
6518;DHT22;3292;48.944;9.240;2023-07-24T14:24:17;21.60;99.90
6518;DHT22;3292;48.944;9.240;2023-07-24T14:26:43;21.50;99.90
6518;DHT22;3292;48.944;9.240;2023-07-24T14:29:12;21.40;99.90
6518;DHT22;3292;48.944;9.240;2023-07-24T14:31:42;21.50;99.90
6518;DHT22;3292;48.944;9.240;2023-07-24T14:34:09;21.50;99.90
6518;DHT22;3292;48.944;9.240;2023-07-24T14:36:37;21.60;99.90
6518;DHT22;3292;48.944;9.240;2023-07-24T14:39:04;21.70;99.90
6518;DHT22;3292;48.944;9.240;2023-07-24T14:41:31;21.80;99.90
6518;DHT22;3292;48.944;9.240;2023-07-24T14:43:58;22.00;99.90
6518;DHT22;3292;48.944;9.240;2023-07-24T14:46:26;22.20;99.90
6518;DHT22;3292;48.944;9.240;2023-07-24T14:48:53;22.30;99.90
6518;DHT22;3292;48.944;9.240;2023-07-24T14:51:20;22.30;99.90
6518;DHT22;3292;48.944;9.240;2023-07-24T14:53:46;22.30;99.90
6518;DHT22;3292;48.944;9.240;2023-07-24T14:56:13;22.30;99.90
6518;DHT22;3292;48.944;9.240;2023-07-24T14:58:41;22.40;99.90
6518;DHT22;3292;48.944;9.240;2023-07-24T15:01:10;22.50;99.90
6518;DHT22;3292;48.944;9.240;2023-07-24T15:03:39;22.50;99.90
6518;DHT22;3292;48.944;9.240;2023-07-24T15:06:06;22.50;99.90
6518;DHT22;3292;48.944;9.240;2023-07-24T15:08:33;22.60;99.90
6518;DHT22;3292;48.944;9.240;2023-07-24T15:11:00;22.60;99.90
6518;DHT22;3292;48.944;9.240;2023-07-24T15:13:27;22.50;99.90
6518;DHT22;3292;48.944;9.240;2023-07-24T15:15:54;22.50;99.90
6518;DHT22;3292;48.944;9.240;2023-07-24T15:18:20;22.50;99.90
6518;DHT22;3292;48.944;9.240;2023-07-24T15:20:48;22.50;99.90
6518;DHT22;3292;48.944;9.240;2023-07-24T15:23:14;22.60;99.90
6518;DHT22;3292;48.944;9.240;2023-07-24T15:25:41;22.70;99.90
6518;DHT22;3292;48.944;9.240;2023-07-24T15:28:08;22.90;99.90
6518;DHT22;3292;48.944;9.240;2023-07-24T15:30:35;23.10;99.90
6518;DHT22;3292;48.944;9.240;2023-07-24T15:33:02;23.30;99.90
6518;DHT22;3292;48.944;9.240;2023-07-24T15:35:28;23.30;99.90
6518;DHT22;3292;48.944;9.240;2023-07-24T15:37:56;23.30;99.90
6518;DHT22;3292;48.944;9.240;2023-07-24T15:40:23;23.20;99.90
6518;DHT22;3292;48.944;9.240;2023-07-24T15:42:50;23.10;99.90
6518;DHT22;3292;48.944;9.240;2023-07-24T15:45:17;23.00;99.90
6518;DHT22;3292;48.944;9.240;2023-07-24T15:47:44;23.00;99.90
6518;DHT22;3292;48.944;9.240;2023-07-24T15:50:11;22.90;99.90
6518;DHT22;3292;48.944;9.240;2023-07-24T15:52:37;22.90;99.90
6518;DHT22;3292;48.944;9.240;2023-07-24T15:55:06;22.80;99.90
6518;DHT22;3292;48.944;9.240;2023-07-24T15:57:33;22.70;99.90
6518;DHT22;3292;48.944;9.240;2023-07-24T16:00:00;22.70;99.90
6518;DHT22;3292;48.944;9.240;2023-07-24T16:02:26;22.60;99.90
6518;DHT22;3292;48.944;9.240;2023-07-24T16:04:53;22.50;99.90
6518;DHT22;3292;48.944;9.240;2023-07-24T16:07:21;22.50;99.90